Time;durP1;ratioP1;P1;durP2;ratioP2;P2;SDS_P1;SDS_P2;PMS_P1;PMS_P2;Temp;Humidity;BMP_temperature;BMP_pressure;BME280_temperature;BME280_humidity;BME280_pressure;Samples;Min_cycle;Max_cycle;Signal;HPM_P1;HPM_P2
2022/07/30 00:00:54;;;;;;;6.72;3.30;;;;;;;;;;5012875;28;20165;-74
2022/07/30 00:03:20;;;;;;;5.40;2.90;;;;;;;;;;5000362;28;20433;-74
2022/07/30 00:05:45;;;;;;;5.03;3.20;;;;;;;;;;5002793;28;20084;-74
2022/07/30 00:08:11;;;;;;;7.55;4.43;;;;;;;;;;4994130;28;20036;-74
2022/07/30 00:10:37;;;;;;;5.13;3.65;;;;;;;;;;4995612;28;20040;-74
2022/07/30 00:13:03;;;;;;;6.38;3.70;;;;;;;;;;5000855;28;20026;-72
2022/07/30 00:15:28;;;;;;;6.78;3.60;;;;;;;;;;5003620;28;20390;-73
2022/07/30 00:17:54;;;;;;;6.85;3.80;;;;;;;;;;4999856;28;20065;-74
2022/07/30 00:20:19;;;;;;;5.20;3.60;;;;;;;;;;4997787;28;20363;-74
2022/07/30 00:22:45;;;;;;;5.00;3.75;;;;;;;;;;4998662;28;20026;-74
2022/07/30 00:25:11;;;;;;;7.07;3.72;;;;;;;;;;4993333;28;20033;-74
2022/07/30 00:27:36;;;;;;;5.50;3.80;;;;;;;;;;5000219;28;20034;-73
2022/07/30 00:30:03;;;;;;;5.63;3.70;;;;;;;;;;4994392;28;20504;-74
2022/07/30 00:32:29;;;;;;;5.43;3.60;;;;;;;;;;4997499;28;20160;-74
2022/07/30 00:34:54;;;;;;;6.03;3.22;;;;;;;;;;4997847;28;20018;-74
2022/07/30 00:37:20;;;;;;;5.78;3.22;;;;;;;;;;5002951;28;20074;-74
2022/07/30 00:39:46;;;;;;;6.40;3.30;;;;;;;;;;4995005;28;20049;-74
2022/07/30 00:42:11;;;;;;;8.43;3.88;;;;;;;;;;4996264;28;20511;-74
2022/07/30 00:44:36;;;;;;;5.03;3.28;;;;;;;;;;4998307;28;20485;-74
2022/07/30 00:47:02;;;;;;;4.82;3.47;;;;;;;;;;4994535;28;20029;-74
2022/07/30 00:49:27;;;;;;;5.65;3.20;;;;;;;;;;4995786;28;20042;-74
2022/07/30 00:51:53;;;;;;;7.22;3.50;;;;;;;;;;4994978;28;20037;-74
2022/07/30 00:54:19;;;;;;;5.95;3.22;;;;;;;;;;4996638;28;20034;-73
2022/07/30 00:56:46;;;;;;;6.53;3.25;;;;;;;;;;5000546;28;20544;-74
2022/07/30 00:59:12;;;;;;;7.30;3.47;;;;;;;;;;5003505;28;20030;-74
2022/07/30 01:01:38;;;;;;;5.18;3.17;;;;;;;;;;4996223;28;20458;-73
2022/07/30 01:04:06;;;;;;;5.30;3.50;;;;;;;;;;5003014;28;20112;-74
2022/07/30 01:06:32;;;;;;;6.15;3.53;;;;;;;;;;4996303;28;20041;-74
2022/07/30 01:08:57;;;;;;;5.35;3.38;;;;;;;;;;5005127;28;20474;-74
2022/07/30 01:11:30;;;;;;;6.15;3.60;;;;;;;;;;4999779;28;20557;-74
2022/07/30 01:13:56;;;;;;;5.25;3.30;;;;;;;;;;5006589;28;20029;-74
2022/07/30 01:16:21;;;;;;;5.63;3.00;;;;;;;;;;5000006;28;20056;-74
2022/07/30 01:21:38;;;;;;;6.00;3.22;;;;;;;;;;4998654;28;20135;-74
2022/07/30 01:24:20;;;;;;;5.45;3.13;;;;;;;;;;4997683;28;20038;-74
2022/07/30 01:26:46;;;;;;;5.20;3.08;;;;;;;;;;5002107;28;20485;-72
2022/07/30 01:29:13;;;;;;;6.15;2.67;;;;;;;;;;4999846;28;20117;-74
2022/07/30 01:31:40;;;;;;;6.03;3.03;;;;;;;;;;5002775;28;20485;-75
2022/07/30 01:34:06;;;;;;;6.93;3.10;;;;;;;;;;4999486;28;20461;-75
2022/07/30 01:36:32;;;;;;;5.05;2.40;;;;;;;;;;5000157;28;20474;-74
2022/07/30 01:38:59;;;;;;;5.28;2.75;;;;;;;;;;5001663;28;20133;-74
2022/07/30 01:41:25;;;;;;;6.75;3.10;;;;;;;;;;4996889;28;20026;-74
2022/07/30 01:43:52;;;;;;;6.93;3.10;;;;;;;;;;5005319;28;20034;-74
2022/07/30 01:46:18;;;;;;;5.25;2.60;;;;;;;;;;5002735;28;20046;-74
2022/07/30 01:48:44;;;;;;;5.45;2.97;;;;;;;;;;4996632;28;20497;-72
2022/07/30 01:51:12;;;;;;;5.30;2.97;;;;;;;;;;5001725;28;20022;-74
2022/07/30 01:53:40;;;;;;;4.07;2.63;;;;;;;;;;4998292;28;20037;-73
2022/07/30 01:56:08;;;;;;;6.45;3.05;;;;;;;;;;4999901;28;20108;-74
2022/07/30 01:58:36;;;;;;;5.68;2.50;;;;;;;;;;4999059;28;20039;-74
2022/07/30 02:01:01;;;;;;;4.72;2.47;;;;;;;;;;4998301;28;20038;-74
2022/07/30 02:03:28;;;;;;;5.30;3.10;;;;;;;;;;4998634;28;20112;-74
2022/07/30 02:06:02;;;;;;;8.57;3.45;;;;;;;;;;4996664;28;20037;-74
2022/07/30 02:08:37;;;;;;;4.93;2.90;;;;;;;;;;5001137;28;20039;-74
2022/07/30 02:11:09;;;;;;;8.07;4.00;;;;;;;;;;5002535;28;20168;-74
2022/07/30 02:13:43;;;;;;;8.00;4.07;;;;;;;;;;5000062;28;20040;-74
2022/07/30 02:16:24;;;;;;;4.55;3.17;;;;;;;;;;5000268;28;20033;-74
2022/07/30 02:19:08;;;;;;;5.47;3.10;;;;;;;;;;4995622;28;20030;-74
2022/07/30 02:21:37;;;;;;;5.53;3.20;;;;;;;;;;5006504;28;20068;-74
2022/07/30 02:24:09;;;;;;;4.93;3.00;;;;;;;;;;4995999;28;20128;-74
2022/07/30 02:26:37;;;;;;;4.68;2.92;;;;;;;;;;4995873;28;20049;-74
2022/07/30 02:29:03;;;;;;;5.53;3.45;;;;;;;;;;4998393;28;20026;-74
2022/07/30 02:31:30;;;;;;;5.72;3.70;;;;;;;;;;4996823;28;20060;-74
2022/07/30 02:33:59;;;;;;;7.82;3.95;;;;;;;;;;4995606;28;20021;-72
2022/07/30 02:36:27;;;;;;;5.75;3.42;;;;;;;;;;4998039;28;20042;-74
2022/07/30 02:38:55;;;;;;;6.45;4.30;;;;;;;;;;4997797;28;20042;-75
2022/07/30 02:41:22;;;;;;;5.63;3.63;;;;;;;;;;4996569;28;20034;-74
2022/07/30 02:43:50;;;;;;;6.65;3.83;;;;;;;;;;4998135;28;20445;-74
2022/07/30 02:46:17;;;;;;;5.07;3.08;;;;;;;;;;4997720;28;21386;-74
2022/07/30 02:48:44;;;;;;;6.00;3.90;;;;;;;;;;5001203;28;20148;-74
2022/07/30 02:51:10;;;;;;;5.85;3.90;;;;;;;;;;4999380;28;20113;-74
2022/07/30 02:53:37;;;;;;;7.93;3.97;;;;;;;;;;5001897;28;20076;-74
2022/07/30 02:56:06;;;;;;;6.18;4.20;;;;;;;;;;5013433;28;20103;-73
2022/07/30 02:58:32;;;;;;;6.57;4.10;;;;;;;;;;5003467;28;20033;-73
2022/07/30 03:01:00;;;;;;;5.75;3.83;;;;;;;;;;4998998;28;20034;-73
2022/07/30 03:03:28;;;;;;;4.38;3.58;;;;;;;;;;4998812;28;20018;-74
2022/07/30 03:05:54;;;;;;;5.45;3.72;;;;;;;;;;4999642;28;20040;-73
2022/07/30 03:08:20;;;;;;;6.15;3.95;;;;;;;;;;4998407;28;20022;-73
2022/07/30 03:10:47;;;;;;;5.65;4.18;;;;;;;;;;5002652;28;20045;-74
2022/07/30 03:13:13;;;;;;;6.03;3.92;;;;;;;;;;4999937;28;20030;-74
2022/07/30 03:15:45;;;;;;;6.30;4.15;;;;;;;;;;4995179;28;20021;-74
2022/07/30 03:18:13;;;;;;;6.72;4.25;;;;;;;;;;5001297;28;20117;-74
2022/07/30 03:20:39;;;;;;;6.30;4.40;;;;;;;;;;5000877;28;20048;-74
2022/07/30 03:23:06;;;;;;;8.07;4.63;;;;;;;;;;5001351;28;20088;-74
2022/07/30 03:25:33;;;;;;;6.03;4.60;;;;;;;;;;4999416;28;20038;-74
2022/07/30 03:28:01;;;;;;;7.82;4.50;;;;;;;;;;4999545;28;20052;-74
2022/07/30 03:30:27;;;;;;;5.57;3.97;;;;;;;;;;5001158;28;20425;-74
2022/07/30 03:32:54;;;;;;;7.40;4.28;;;;;;;;;;4999787;28;20705;-73
2022/07/30 03:35:23;;;;;;;5.88;3.97;;;;;;;;;;4996797;28;20398;-74
2022/07/30 03:37:49;;;;;;;6.53;4.30;;;;;;;;;;4997972;28;20038;-74
2022/07/30 03:40:15;;;;;;;6.35;4.40;;;;;;;;;;5009179;28;20033;-74
2022/07/30 03:42:42;;;;;;;5.72;4.32;;;;;;;;;;4994494;28;20712;-74
2022/07/30 03:45:08;;;;;;;6.75;4.57;;;;;;;;;;5002653;28;20030;-72
2022/07/30 03:47:37;;;;;;;6.55;4.75;;;;;;;;;;5004209;28;20022;-73
2022/07/30 03:50:04;;;;;;;6.57;4.53;;;;;;;;;;4995447;28;20034;-74
2022/07/30 03:52:32;;;;;;;6.35;4.90;;;;;;;;;;4996252;28;20030;-74
2022/07/30 03:54:58;;;;;;;5.95;4.45;;;;;;;;;;5000509;28;20059;-74
2022/07/30 03:57:24;;;;;;;6.32;4.72;;;;;;;;;;5003590;28;20036;-74
2022/07/30 03:59:50;;;;;;;7.55;5.30;;;;;;;;;;5000578;28;20470;-74
2022/07/30 04:02:16;;;;;;;8.38;5.50;;;;;;;;;;4999602;28;20038;-74
2022/07/30 04:04:42;;;;;;;7.82;5.55;;;;;;;;;;4997216;28;20041;-74
2022/07/30 04:07:08;;;;;;;7.82;5.78;;;;;;;;;;4999962;28;20437;-74
2022/07/30 04:09:33;;;;;;;7.03;5.30;;;;;;;;;;4998705;28;20034;-74
2022/07/30 04:11:59;;;;;;;7.45;5.63;;;;;;;;;;5001921;28;20048;-74
2022/07/30 04:14:25;;;;;;;8.98;5.40;;;;;;;;;;4998484;28;20095;-72
2022/07/30 04:17:03;;;;;;;8.05;5.70;;;;;;;;;;4994492;28;20359;-74
2022/07/30 04:19:39;;;;;;;8.00;5.90;;;;;;;;;;4998160;28;21489;-74
2022/07/30 04:22:07;;;;;;;8.45;6.10;;;;;;;;;;5001046;28;20026;-74
2022/07/30 04:24:34;;;;;;;9.48;6.57;;;;;;;;;;4995142;28;20060;-74
2022/07/30 04:27:01;;;;;;;8.65;6.50;;;;;;;;;;5001442;28;20034;-72
2022/07/30 04:29:26;;;;;;;7.30;5.57;;;;;;;;;;5002875;28;20029;-72
2022/07/30 04:31:53;;;;;;;8.00;6.32;;;;;;;;;;5000790;28;20033;-74
2022/07/30 04:34:18;;;;;;;8.02;5.97;;;;;;;;;;4997328;28;20037;-74
2022/07/30 04:36:45;;;;;;;10.20;6.22;;;;;;;;;;4999562;28;20042;-74
2022/07/30 04:39:11;;;;;;;11.25;6.50;;;;;;;;;;5000529;28;20148;-74
2022/07/30 04:41:37;;;;;;;8.95;6.40;;;;;;;;;;4994486;28;20372;-74
2022/07/30 04:44:03;;;;;;;8.75;6.32;;;;;;;;;;5001098;28;21333;-74
2022/07/30 04:46:28;;;;;;;10.30;6.43;;;;;;;;;;4999330;28;20041;-74
2022/07/30 04:48:54;;;;;;;10.00;6.88;;;;;;;;;;4998015;28;20022;-74
2022/07/30 04:51:26;;;;;;;10.27;7.00;;;;;;;;;;4998941;28;20069;-74
2022/07/30 04:53:53;;;;;;;9.57;7.70;;;;;;;;;;4997439;28;20030;-74
2022/07/30 04:56:20;;;;;;;9.30;6.78;;;;;;;;;;4995963;28;20030;-73
2022/07/30 04:58:46;;;;;;;9.68;7.20;;;;;;;;;;4999747;28;20718;-74
2022/07/30 05:01:16;;;;;;;8.98;6.20;;;;;;;;;;4994387;28;20029;-74
2022/07/30 05:03:42;;;;;;;9.45;6.05;;;;;;;;;;4998375;28;20030;-74
2022/07/30 05:06:07;;;;;;;8.90;6.60;;;;;;;;;;4994618;28;20029;-74
2022/07/30 05:08:33;;;;;;;9.68;6.57;;;;;;;;;;4998622;28;20084;-74
2022/07/30 05:10:59;;;;;;;7.68;5.53;;;;;;;;;;4995862;28;20464;-74
2022/07/30 05:13:24;;;;;;;8.73;6.40;;;;;;;;;;4998067;28;20133;-74
2022/07/30 05:15:50;;;;;;;8.50;6.05;;;;;;;;;;4993315;28;20029;-74
2022/07/30 05:18:15;;;;;;;8.43;5.97;;;;;;;;;;4996552;28;20026;-74
2022/07/30 05:20:41;;;;;;;9.25;6.20;;;;;;;;;;4993555;28;20153;-74
2022/07/30 05:23:07;;;;;;;8.88;6.10;;;;;;;;;;4995252;28;20061;-74
2022/07/30 05:25:33;;;;;;;8.70;5.75;;;;;;;;;;4996074;28;20026;-74
2022/07/30 05:27:58;;;;;;;8.65;5.80;;;;;;;;;;4996209;28;20589;-74
2022/07/30 05:30:23;;;;;;;8.57;5.53;;;;;;;;;;4995686;28;20540;-73
2022/07/30 05:32:49;;;;;;;7.07;5.35;;;;;;;;;;4991705;28;20034;-75
2022/07/30 05:35:15;;;;;;;9.30;6.30;;;;;;;;;;4993686;28;20390;-74
2022/07/30 05:37:40;;;;;;;9.43;5.60;;;;;;;;;;4992413;28;20053;-74
2022/07/30 05:40:06;;;;;;;8.77;6.28;;;;;;;;;;5003500;28;20044;-74
2022/07/30 05:42:32;;;;;;;9.70;5.80;;;;;;;;;;4999855;28;20068;-74
2022/07/30 05:44:59;;;;;;;9.35;6.30;;;;;;;;;;4990487;28;20568;-73
2022/07/30 05:47:24;;;;;;;9.00;6.60;;;;;;;;;;5004240;28;20753;-73
2022/07/30 05:49:50;;;;;;;10.23;6.90;;;;;;;;;;5006358;28;20022;-74
2022/07/30 05:52:15;;;;;;;11.23;6.80;;;;;;;;;;5005047;28;20446;-74
2022/07/30 05:54:40;;;;;;;10.18;6.10;;;;;;;;;;5004823;28;20394;-73
2022/07/30 05:57:06;;;;;;;10.45;6.70;;;;;;;;;;5005538;28;20053;-73
2022/07/30 05:59:31;;;;;;;10.43;6.53;;;;;;;;;;5000020;28;20029;-73
2022/07/30 06:01:56;;;;;;;10.25;6.30;;;;;;;;;;5003537;28;20042;-74
2022/07/30 06:04:22;;;;;;;8.52;6.40;;;;;;;;;;5005597;28;20026;-73
2022/07/30 06:06:47;;;;;;;6.97;5.68;;;;;;;;;;5011524;28;20041;-74
2022/07/30 06:09:13;;;;;;;8.57;6.57;;;;;;;;;;5007384;28;20463;-74
2022/07/30 06:11:38;;;;;;;9.82;6.50;;;;;;;;;;5005445;28;20030;-72
2022/07/30 06:14:04;;;;;;;8.45;6.20;;;;;;;;;;5000228;28;20475;-73
2022/07/30 06:16:29;;;;;;;10.20;6.28;;;;;;;;;;5008096;28;20405;-74
2022/07/30 06:18:55;;;;;;;7.10;5.75;;;;;;;;;;5007306;28;20029;-74
2022/07/30 06:21:20;;;;;;;7.97;5.53;;;;;;;;;;5008002;28;20371;-74
2022/07/30 06:23:46;;;;;;;9.63;5.90;;;;;;;;;;5006881;28;20033;-74
2022/07/30 06:26:11;;;;;;;8.35;5.47;;;;;;;;;;5002664;28;20411;-72
2022/07/30 06:28:37;;;;;;;8.30;6.18;;;;;;;;;;5009140;28;20080;-74
2022/07/30 06:31:02;;;;;;;9.80;6.45;;;;;;;;;;4998763;28;20542;-73
2022/07/30 06:33:28;;;;;;;8.13;5.85;;;;;;;;;;5004581;28;20021;-72
2022/07/30 06:35:53;;;;;;;9.05;6.00;;;;;;;;;;5001337;28;20026;-74
2022/07/30 06:38:18;;;;;;;9.00;5.43;;;;;;;;;;5006857;28;20052;-74
2022/07/30 06:40:44;;;;;;;8.35;5.10;;;;;;;;;;5008965;28;20029;-74
2022/07/30 06:43:09;;;;;;;6.82;4.30;;;;;;;;;;5004112;28;20041;-74
2022/07/30 06:45:34;;;;;;;6.45;3.80;;;;;;;;;;5001455;28;20033;-72
2022/07/30 06:48:00;;;;;;;5.57;3.17;;;;;;;;;;5004522;28;20052;-74
2022/07/30 06:50:26;;;;;;;7.00;3.20;;;;;;;;;;5010008;28;20501;-74
2022/07/30 06:52:51;;;;;;;5.10;3.22;;;;;;;;;;5009488;28;20033;-73
2022/07/30 06:55:17;;;;;;;5.97;3.00;;;;;;;;;;5001083;28;20462;-74
2022/07/30 06:57:42;;;;;;;6.70;3.40;;;;;;;;;;5001908;28;20038;-74
2022/07/30 07:00:09;;;;;;;5.72;3.13;;;;;;;;;;5000698;28;20034;-74
2022/07/30 07:02:34;;;;;;;5.53;2.80;;;;;;;;;;5008059;28;20065;-74
2022/07/30 07:05:00;;;;;;;5.57;3.20;;;;;;;;;;5007878;28;20022;-74
2022/07/30 07:07:26;;;;;;;5.13;3.20;;;;;;;;;;5006265;28;20048;-74
2022/07/30 07:09:51;;;;;;;5.32;2.97;;;;;;;;;;5006096;28;20022;-74
2022/07/30 07:12:16;;;;;;;5.13;2.60;;;;;;;;;;4999579;28;20068;-73
2022/07/30 07:14:42;;;;;;;4.63;3.10;;;;;;;;;;5007361;28;20026;-73
2022/07/30 07:17:07;;;;;;;5.82;3.20;;;;;;;;;;5003483;28;20052;-74
2022/07/30 07:19:33;;;;;;;6.15;2.72;;;;;;;;;;5003452;28;20088;-74
2022/07/30 07:21:58;;;;;;;4.63;2.70;;;;;;;;;;5002693;28;20061;-74
2022/07/30 07:24:23;;;;;;;5.38;2.40;;;;;;;;;;4998339;28;20026;-74
2022/07/30 07:26:49;;;;;;;5.38;2.70;;;;;;;;;;5001772;28;20607;-73
2022/07/30 07:29:15;;;;;;;5.82;2.60;;;;;;;;;;5007103;28;20088;-73
2022/07/30 07:31:40;;;;;;;4.60;2.63;;;;;;;;;;5007947;28;20034;-74
2022/07/30 07:34:06;;;;;;;5.93;2.75;;;;;;;;;;5001624;28;20405;-74
2022/07/30 07:36:33;;;;;;;4.90;2.80;;;;;;;;;;5007317;28;20042;-74
2022/07/30 07:38:58;;;;;;;4.13;2.08;;;;;;;;;;5007579;28;20025;-74
2022/07/30 07:41:25;;;;;;;3.30;2.10;;;;;;;;;;5010067;28;20045;-73
2022/07/30 07:43:50;;;;;;;5.90;2.35;;;;;;;;;;5008050;28;20030;-74
2022/07/30 07:46:16;;;;;;;4.30;2.17;;;;;;;;;;5006390;28;20509;-74
2022/07/30 07:48:42;;;;;;;3.72;2.00;;;;;;;;;;5009652;28;20471;-74
2022/07/30 07:51:08;;;;;;;6.88;1.90;;;;;;;;;;5006514;28;20022;-74
2022/07/30 07:53:34;;;;;;;4.43;2.03;;;;;;;;;;5005864;28;20041;-74
2022/07/30 07:55:59;;;;;;;4.32;1.90;;;;;;;;;;5007572;28;20506;-73
2022/07/30 07:58:25;;;;;;;3.45;2.08;;;;;;;;;;5007317;28;20033;-74
2022/07/30 08:00:50;;;;;;;5.15;2.50;;;;;;;;;;5003159;28;20386;-74
2022/07/30 08:03:16;;;;;;;4.43;2.08;;;;;;;;;;5008305;28;20026;-73
2022/07/30 08:05:41;;;;;;;5.00;1.90;;;;;;;;;;5009682;28;20037;-74
2022/07/30 08:08:06;;;;;;;4.07;2.28;;;;;;;;;;5004459;28;21434;-74
2022/07/30 08:10:32;;;;;;;4.20;2.17;;;;;;;;;;5005718;28;20033;-74
2022/07/30 08:12:57;;;;;;;6.63;2.90;;;;;;;;;;5009410;28;20030;-74
2022/07/30 08:15:23;;;;;;;4.25;2.20;;;;;;;;;;5004487;28;20030;-72
2022/07/30 08:17:49;;;;;;;3.33;2.15;;;;;;;;;;5007860;28;20030;-74
2022/07/30 08:20:15;;;;;;;4.10;2.20;;;;;;;;;;5007841;28;20033;-72
2022/07/30 08:22:41;;;;;;;3.28;2.10;;;;;;;;;;5006829;28;20108;-74
2022/07/30 08:25:07;;;;;;;4.10;2.22;;;;;;;;;;5007557;28;20026;-72
2022/07/30 08:27:33;;;;;;;3.08;1.80;;;;;;;;;;5006321;28;20029;-74
2022/07/30 08:30:04;;;;;;;4.03;1.83;;;;;;;;;;5009588;28;20032;-74
2022/07/30 08:32:29;;;;;;;6.53;2.00;;;;;;;;;;5009833;28;20825;-74
2022/07/30 08:34:55;;;;;;;5.00;1.80;;;;;;;;;;5006222;28;20103;-74
2022/07/30 08:37:20;;;;;;;5.22;2.13;;;;;;;;;;5007258;28;20558;-74
2022/07/30 08:39:45;;;;;;;3.45;2.35;;;;;;;;;;5005478;28;20421;-73
2022/07/30 08:42:13;;;;;;;4.43;2.22;;;;;;;;;;5002682;28;20475;-73
2022/07/30 08:44:39;;;;;;;7.13;2.50;;;;;;;;;;5004309;28;20026;-74
2022/07/30 08:47:08;;;;;;;3.83;2.42;;;;;;;;;;5000966;28;20532;-73
2022/07/30 08:49:35;;;;;;;5.10;2.25;;;;;;;;;;4999294;28;20044;-74
2022/07/30 08:52:00;;;;;;;3.22;2.10;;;;;;;;;;5002522;28;20076;-73
2022/07/30 08:54:26;;;;;;;3.53;1.95;;;;;;;;;;5004424;28;20054;-74
2022/07/30 08:56:52;;;;;;;4.57;2.40;;;;;;;;;;5004261;28;20072;-73
2022/07/30 08:59:17;;;;;;;3.08;2.10;;;;;;;;;;5000934;28;20073;-73
2022/07/30 09:01:43;;;;;;;4.03;2.38;;;;;;;;;;4999072;28;20128;-74
2022/07/30 09:04:08;;;;;;;4.07;2.53;;;;;;;;;;5000414;28;20030;-72
2022/07/30 09:06:35;;;;;;;4.68;2.30;;;;;;;;;;5006365;28;20474;-73
2022/07/30 09:09:00;;;;;;;3.65;2.38;;;;;;;;;;5000468;28;20449;-74
2022/07/30 09:11:26;;;;;;;4.88;2.33;;;;;;;;;;5004008;28;20112;-76
2022/07/30 09:13:51;;;;;;;5.28;1.98;;;;;;;;;;5003663;28;20049;-75
2022/07/30 09:16:21;;;;;;;3.95;1.85;;;;;;;;;;5004006;28;20026;-76
2022/07/30 09:18:46;;;;;;;3.15;1.88;;;;;;;;;;5003511;28;20029;-76
2022/07/30 09:21:16;;;;;;;4.22;1.95;;;;;;;;;;5009325;28;20042;-74
2022/07/30 09:23:55;;;;;;;2.95;1.92;;;;;;;;;;5009874;28;20034;-76
2022/07/30 09:26:20;;;;;;;3.63;1.98;;;;;;;;;;5007448;28;20087;-74
2022/07/30 09:28:46;;;;;;;3.92;1.92;;;;;;;;;;5006198;28;20470;-75
2022/07/30 09:31:11;;;;;;;5.57;2.00;;;;;;;;;;5006491;28;20122;-76
2022/07/30 09:33:39;;;;;;;3.88;1.80;;;;;;;;;;5012437;28;20395;-76
2022/07/30 09:36:07;;;;;;;3.60;1.92;;;;;;;;;;5011352;28;20141;-76
2022/07/30 09:38:47;;;;;;;3.80;2.03;;;;;;;;;;5005106;28;20113;-74
2022/07/30 09:41:15;;;;;;;3.92;2.00;;;;;;;;;;5006148;28;20064;-75
2022/07/30 09:43:44;;;;;;;3.33;1.77;;;;;;;;;;5006341;28;20036;-76
2022/07/30 09:46:10;;;;;;;3.58;1.80;;;;;;;;;;5008120;28;20030;-76
2022/07/30 09:48:35;;;;;;;2.97;1.77;;;;;;;;;;5010215;28;20048;-75
2022/07/30 09:51:01;;;;;;;2.97;1.50;;;;;;;;;;5013075;28;20026;-75
2022/07/30 09:53:26;;;;;;;4.40;1.67;;;;;;;;;;5011416;28;20482;-77
2022/07/30 09:55:52;;;;;;;5.72;2.10;;;;;;;;;;5009014;28;20494;-75
2022/07/30 09:58:17;;;;;;;4.97;1.90;;;;;;;;;;5008403;28;20394;-76
2022/07/30 10:00:43;;;;;;;3.95;1.60;;;;;;;;;;5008359;28;20030;-76
2022/07/30 10:03:24;;;;;;;3.00;1.40;;;;;;;;;;5009100;28;20414;-75
2022/07/30 10:06:00;;;;;;;2.60;1.63;;;;;;;;;;5009385;28;20034;-76
2022/07/30 10:08:50;;;;;;;4.15;1.48;;;;;;;;;;5005583;28;20022;-74
2022/07/30 10:11:21;;;;;;;2.40;1.30;;;;;;;;;;5007138;28;20030;-76
2022/07/30 10:13:49;;;;;;;3.42;1.80;;;;;;;;;;5013816;28;20306;-75
2022/07/30 10:16:15;;;;;;;2.55;1.40;;;;;;;;;;5004976;28;20120;-75
2022/07/30 10:18:43;;;;;;;4.07;1.42;;;;;;;;;;5009002;28;20120;-76
2022/07/30 10:21:09;;;;;;;3.38;1.58;;;;;;;;;;5009410;28;20025;-76
2022/07/30 10:23:35;;;;;;;2.67;1.30;;;;;;;;;;5014340;28;20540;-76
2022/07/30 10:26:01;;;;;;;3.80;1.45;;;;;;;;;;5009899;28;20363;-76
2022/07/30 10:28:28;;;;;;;2.45;1.60;;;;;;;;;;5012338;28;20101;-77
2022/07/30 10:30:56;;;;;;;1.92;1.30;;;;;;;;;;5008825;28;20034;-75
2022/07/30 10:33:24;;;;;;;2.38;1.20;;;;;;;;;;5009573;28;20028;-75
2022/07/30 10:35:49;;;;;;;5.50;1.50;;;;;;;;;;5002450;28;20038;-74
2022/07/30 10:38:17;;;;;;;3.10;1.40;;;;;;;;;;5007009;28;20547;-75
2022/07/30 10:40:51;;;;;;;3.22;1.17;;;;;;;;;;5011633;28;20045;-74
2022/07/30 10:43:31;;;;;;;2.53;1.27;;;;;;;;;;5010729;28;20029;-75
2022/07/30 10:46:22;;;;;;;3.00;1.30;;;;;;;;;;5011355;28;20401;-75
2022/07/30 10:48:48;;;;;;;1.98;1.13;;;;;;;;;;5010457;28;20029;-74
2022/07/30 10:51:14;;;;;;;3.30;1.40;;;;;;;;;;5010066;28;20033;-76
2022/07/30 10:53:44;;;;;;;3.35;1.30;;;;;;;;;;5008476;28;20556;-74
2022/07/30 10:56:13;;;;;;;3.38;1.40;;;;;;;;;;5006489;28;20553;-75
2022/07/30 10:59:03;;;;;;;3.83;1.30;;;;;;;;;;5001520;28;20034;-74
2022/07/30 11:01:49;;;;;;;2.47;1.40;;;;;;;;;;5005081;28;20042;-75
2022/07/30 11:04:25;;;;;;;1.90;1.23;;;;;;;;;;4998913;28;20052;-76
2022/07/30 11:06:52;;;;;;;2.85;1.50;;;;;;;;;;5003221;28;20034;-75
2022/07/30 11:09:37;;;;;;;2.50;1.40;;;;;;;;;;5004939;28;20029;-74
2022/07/30 11:12:03;;;;;;;2.58;1.50;;;;;;;;;;5000415;28;20053;-75
2022/07/30 11:14:44;;;;;;;2.30;1.55;;;;;;;;;;5003735;28;20113;-75
2022/07/30 11:17:10;;;;;;;4.13;1.42;;;;;;;;;;5006393;28;20032;-76
2022/07/30 11:20:05;;;;;;;3.17;1.50;;;;;;;;;;5003204;28;20038;-75
2022/07/30 11:22:43;;;;;;;3.30;1.80;;;;;;;;;;5007513;28;20407;-74
2022/07/30 11:25:29;;;;;;;2.75;1.30;;;;;;;;;;5002888;28;20464;-75
2022/07/30 11:27:55;;;;;;;2.22;1.35;;;;;;;;;;5000335;28;20414;-75
2022/07/30 11:30:21;;;;;;;3.15;1.55;;;;;;;;;;5009063;28;20044;-74
2022/07/30 11:32:48;;;;;;;3.83;1.67;;;;;;;;;;5004780;28;20034;-75
2022/07/30 11:35:24;;;;;;;2.70;1.50;;;;;;;;;;5006286;28;20328;-75
2022/07/30 11:38:07;;;;;;;3.25;1.50;;;;;;;;;;5001677;28;20437;-75
2022/07/30 11:40:35;;;;;;;3.20;1.40;;;;;;;;;;5008101;28;20030;-75
2022/07/30 11:43:31;;;;;;;3.90;1.70;;;;;;;;;;4999406;28;20124;-75
2022/07/30 11:46:16;;;;;;;3.55;1.90;;;;;;;;;;5003531;28;20029;-75
2022/07/30 11:48:57;;;;;;;2.72;1.42;;;;;;;;;;5004553;28;20025;-74
2022/07/30 11:51:23;;;;;;;3.67;1.52;;;;;;;;;;5005358;28;20026;-75
2022/07/30 11:54:06;;;;;;;2.90;1.73;;;;;;;;;;5005702;28;20034;-74
2022/07/30 11:56:32;;;;;;;5.20;1.60;;;;;;;;;;4999514;28;20107;-75
2022/07/30 11:59:06;;;;;;;2.60;1.40;;;;;;;;;;5008285;28;20093;-75
2022/07/30 12:01:35;;;;;;;2.72;1.52;;;;;;;;;;5006629;28;20030;-76
2022/07/30 12:04:04;;;;;;;2.70;1.60;;;;;;;;;;5005067;28;20041;-75
2022/07/30 12:06:30;;;;;;;2.80;1.50;;;;;;;;;;5017142;28;20041;-75
2022/07/30 12:08:57;;;;;;;3.65;1.30;;;;;;;;;;4999609;28;20132;-75
2022/07/30 12:11:23;;;;;;;2.78;1.50;;;;;;;;;;5004798;28;20148;-76
2022/07/30 12:13:58;;;;;;;4.38;1.70;;;;;;;;;;5002600;28;20037;-75
2022/07/30 12:16:24;;;;;;;2.65;1.50;;;;;;;;;;5004108;28;20029;-76
2022/07/30 12:18:50;;;;;;;2.88;1.70;;;;;;;;;;4997858;28;20034;-74
2022/07/30 12:21:15;;;;;;;3.53;1.85;;;;;;;;;;5001453;28;20076;-73
2022/07/30 12:23:42;;;;;;;3.88;1.80;;;;;;;;;;5001481;28;20438;-74
2022/07/30 12:26:18;;;;;;;3.08;1.60;;;;;;;;;;5006862;28;20053;-74
2022/07/30 12:28:45;;;;;;;5.00;1.60;;;;;;;;;;5007214;28;20038;-74
2022/07/30 12:31:14;;;;;;;3.67;1.60;;;;;;;;;;5007395;28;20405;-73
2022/07/30 12:33:39;;;;;;;3.72;1.70;;;;;;;;;;5007552;28;20068;-74
2022/07/30 12:36:05;;;;;;;2.95;1.70;;;;;;;;;;5009055;28;20493;-73
2022/07/30 12:38:44;;;;;;;2.08;1.40;;;;;;;;;;5005032;28;20045;-73
2022/07/30 12:41:09;;;;;;;2.58;1.55;;;;;;;;;;5008542;28;20026;-73
2022/07/30 12:44:07;;;;;;;3.38;1.50;;;;;;;;;;5005506;28;20032;-73
2022/07/30 12:46:39;;;;;;;2.33;1.48;;;;;;;;;;4978948;28;20061;-73
2022/07/30 12:49:06;;;;;;;3.05;1.65;;;;;;;;;;5002876;28;20162;-73
2022/07/30 12:51:35;;;;;;;2.80;1.50;;;;;;;;;;5006682;28;20053;-75
2022/07/30 12:54:13;;;;;;;2.55;1.40;;;;;;;;;;5017062;28;20021;-76
2022/07/30 12:56:39;;;;;;;3.00;1.70;;;;;;;;;;5006315;28;20383;-74
2022/07/30 12:59:20;;;;;;;2.50;1.52;;;;;;;;;;5010873;28;20034;-75
2022/07/30 13:01:45;;;;;;;3.15;1.50;;;;;;;;;;5010936;28;20032;-75
2022/07/30 13:04:13;;;;;;;4.53;1.75;;;;;;;;;;5008424;28;20395;-75
2022/07/30 13:06:42;;;;;;;3.35;1.48;;;;;;;;;;5011533;28;20045;-74
2022/07/30 13:09:20;;;;;;;3.15;1.50;;;;;;;;;;5010671;28;20014;-74
2022/07/30 13:11:46;;;;;;;4.20;1.70;;;;;;;;;;5007940;28;20528;-74
2022/07/30 13:14:14;;;;;;;4.60;1.60;;;;;;;;;;5009212;28;20450;-75
2022/07/30 13:16:40;;;;;;;2.90;1.40;;;;;;;;;;5012422;28;20484;-74
2022/07/30 13:19:07;;;;;;;3.90;1.40;;;;;;;;;;5009928;28;20418;-75
2022/07/30 13:21:34;;;;;;;3.10;1.40;;;;;;;;;;5012323;28;20495;-74
2022/07/30 13:24:00;;;;;;;5.38;1.80;;;;;;;;;;5006853;28;20057;-73
2022/07/30 13:26:28;;;;;;;3.13;1.70;;;;;;;;;;5013607;28;20029;-76
2022/07/30 13:28:53;;;;;;;2.42;1.73;;;;;;;;;;5011389;28;20046;-74
2022/07/30 13:31:20;;;;;;;3.20;1.60;;;;;;;;;;5008459;28;20460;-73
2022/07/30 13:33:46;;;;;;;3.60;1.77;;;;;;;;;;5013753;28;20042;-74
2022/07/30 13:36:11;;;;;;;5.28;1.90;;;;;;;;;;5011744;28;20375;-75
2022/07/30 13:38:36;;;;;;;2.45;1.42;;;;;;;;;;5015336;28;20033;-75
2022/07/30 13:41:03;;;;;;;2.70;1.50;;;;;;;;;;5007886;28;20022;-76
2022/07/30 13:43:29;;;;;;;3.08;1.70;;;;;;;;;;5009359;28;20483;-75
2022/07/30 13:45:55;;;;;;;5.05;2.38;;;;;;;;;;4997679;28;20092;-74
2022/07/30 13:48:20;;;;;;;3.45;1.70;;;;;;;;;;5003111;28;20026;-75
2022/07/30 13:50:46;;;;;;;3.30;1.80;;;;;;;;;;5007770;28;20058;-75
2022/07/30 13:53:12;;;;;;;4.72;1.73;;;;;;;;;;5009364;28;20022;-75
2022/07/30 13:55:38;;;;;;;4.68;1.80;;;;;;;;;;5006446;28;20022;-76
2022/07/30 13:58:05;;;;;;;2.85;1.77;;;;;;;;;;5003602;28;20560;-76
2022/07/30 14:00:31;;;;;;;3.63;1.92;;;;;;;;;;5005110;28;20881;-77
2022/07/30 14:03:02;;;;;;;7.57;2.35;;;;;;;;;;5006628;28;20030;-74
2022/07/30 14:05:27;;;;;;;3.88;1.70;;;;;;;;;;5001604;28;20030;-76
2022/07/30 14:07:53;;;;;;;4.03;2.00;;;;;;;;;;5008232;28;20057;-74
2022/07/30 14:10:21;;;;;;;5.18;1.70;;;;;;;;;;5007475;28;20029;-76
2022/07/30 14:12:53;;;;;;;4.57;1.63;;;;;;;;;;5010199;28;20026;-75
2022/07/30 14:15:23;;;;;;;4.40;1.85;;;;;;;;;;5010465;28;20045;-75
2022/07/30 14:17:49;;;;;;;2.95;1.77;;;;;;;;;;5011859;28;20080;-74
2022/07/30 14:20:15;;;;;;;3.08;1.80;;;;;;;;;;5008879;28;20094;-75
2022/07/30 14:22:40;;;;;;;4.28;1.73;;;;;;;;;;5006241;28;20483;-75
2022/07/30 14:25:07;;;;;;;3.35;1.77;;;;;;;;;;5007235;28;20061;-75
2022/07/30 14:27:32;;;;;;;3.10;1.75;;;;;;;;;;5010241;28;20040;-77
2022/07/30 14:29:58;;;;;;;3.65;1.80;;;;;;;;;;5017581;28;20108;-76
2022/07/30 14:32:23;;;;;;;2.83;1.70;;;;;;;;;;5004257;28;20037;-75
2022/07/30 14:34:49;;;;;;;3.55;1.73;;;;;;;;;;5010439;28;20030;-76
2022/07/30 14:37:14;;;;;;;3.88;1.80;;;;;;;;;;5011855;28;20045;-75
2022/07/30 14:39:40;;;;;;;3.17;1.73;;;;;;;;;;5005764;28;20374;-76
2022/07/30 14:42:05;;;;;;;4.13;1.70;;;;;;;;;;5007327;28;20030;-74
2022/07/30 14:44:31;;;;;;;2.92;1.65;;;;;;;;;;5008281;28;20033;-75
2022/07/30 14:46:57;;;;;;;4.90;1.90;;;;;;;;;;5012453;28;20034;-76
2022/07/30 14:49:22;;;;;;;3.45;2.05;;;;;;;;;;5005588;28;20030;-77